Time;durP1;ratioP1;P1;durP2;ratioP2;P2;SDS_P1;SDS_P2;PMS_P1;PMS_P2;Temp;Humidity;BMP_temperature;BMP_pressure;BME280_temperature;BME280_humidity;BME280_pressure;Samples;Min_cycle;Max_cycle;Signal;HPM_P1;HPM_P2
2022/09/18 00:00:38;;;;;;;4.68;2.47;;;;;;;-141.48;100.00;69781.59;5227693;28;20488;-65
2022/09/18 00:03:09;;;;;;;8.40;3.65;;;;;;;-141.48;100.00;69781.59;5227855;28;20036;-66
2022/09/18 00:05:41;;;;;;;5.68;3.15;;;;;;;-141.48;100.00;69781.59;5227365;28;20048;-64
2022/09/18 00:08:11;;;;;;;4.68;3.28;;;;;;;-141.48;100.00;69781.59;5227773;28;20107;-63
2022/09/18 00:10:45;;;;;;;5.88;2.33;;;;;;;-141.48;100.00;69781.59;5227554;28;20162;-65
2022/09/18 00:13:15;;;;;;;3.15;2.40;;;;;;;-141.48;100.00;69781.59;5227641;28;20111;-65
2022/09/18 00:15:53;;;;;;;2.22;2.13;;;;;;;-141.48;100.00;69781.59;5227302;28;20104;-67
2022/09/18 00:18:25;;;;;;;3.17;3.08;;;;;;;-141.48;100.00;69781.59;5227473;28;20024;-67
2022/09/18 00:21:03;;;;;;;3.80;2.53;;;;;;;-141.48;100.00;69781.59;5227723;28;20021;-65
2022/09/18 00:23:34;;;;;;;2.92;2.65;;;;;;;-141.48;100.00;69781.59;5226902;28;20100;-65
2022/09/18 00:26:05;;;;;;;3.35;2.33;;;;;;;-141.48;100.00;69781.59;5227405;28;20159;-67
2022/09/18 00:28:36;;;;;;;2.28;2.17;;;;;;;-141.48;100.00;69781.59;5227228;28;20025;-67
2022/09/18 00:31:13;;;;;;;13.38;3.40;;;;;;;-141.48;100.00;69781.59;5209078;28;20013;-67
2022/09/18 00:33:44;;;;;;;5.30;2.78;;;;;;;-141.48;100.00;69781.59;5226548;28;20538;-67
2022/09/18 00:36:17;;;;;;;3.33;2.28;;;;;;;-141.48;100.00;69781.59;5227368;28;20068;-64
2022/09/18 00:38:48;;;;;;;4.53;2.45;;;;;;;-141.48;100.00;69781.59;5227019;28;20029;-64
2022/09/18 00:41:27;;;;;;;3.45;3.08;;;;;;;-141.48;100.00;69781.59;5226729;28;20025;-63
2022/09/18 00:44:29;;;;;;;4.32;2.90;;;;;;;-141.48;100.00;69781.59;5208588;28;20032;-66
2022/09/18 00:47:08;;;;;;;11.25;3.42;;;;;;;-141.48;100.00;69781.59;5226743;28;20021;-66
2022/09/18 00:49:41;;;;;;;3.80;3.13;;;;;;;-141.48;100.00;69781.59;5226283;28;20025;-67
2022/09/18 00:52:13;;;;;;;3.50;3.30;;;;;;;-141.48;100.00;69781.59;5227026;28;20020;-65
2022/09/18 00:54:49;;;;;;;2.45;2.25;;;;;;;-141.48;100.00;69781.59;5226306;28;20037;-64
2022/09/18 00:57:26;;;;;;;3.05;2.75;;;;;;;-141.48;100.00;69781.59;5226851;28;20067;-70
2022/09/18 00:59:57;;;;;;;2.33;2.22;;;;;;;-141.48;100.00;69781.59;5226306;28;20428;-65
2022/09/18 01:02:27;;;;;;;2.65;2.45;;;;;;;-141.48;100.00;69781.59;5227099;28;20028;-67
2022/09/18 01:04:58;;;;;;;4.68;3.28;;;;;;;-141.48;100.00;69781.59;5226104;28;20385;-67
2022/09/18 01:07:40;;;;;;;8.75;2.95;;;;;;;-141.48;100.00;69781.59;5224436;28;20039;-65
2022/09/18 01:10:30;;;;;;;5.60;3.22;;;;;;;-141.48;100.00;69781.59;5225914;28;20029;-66
2022/09/18 01:13:03;;;;;;;5.97;2.90;;;;;;;-141.48;100.00;69781.59;5208610;28;20013;-66
2022/09/18 01:15:40;;;;;;;3.35;3.10;;;;;;;-141.48;100.00;69781.59;5226201;28;20078;-68
2022/09/18 01:18:20;;;;;;;12.57;3.22;;;;;;;-141.48;100.00;69781.59;5226416;28;20378;-67
2022/09/18 01:21:03;;;;;;;7.03;2.77;;;;;;;-141.48;100.00;69781.59;5207962;28;20035;-68
2022/09/18 01:24:05;;;;;;;5.80;2.85;;;;;;;-141.48;100.00;69781.59;5225775;28;20460;-66
2022/09/18 01:26:56;;;;;;;3.35;3.05;;;;;;;-141.48;100.00;69781.59;5226401;28;20017;-65
2022/09/18 01:29:38;;;;;;;3.05;2.95;;;;;;;-141.48;100.00;69781.59;5226578;28;20031;-67
2022/09/18 01:32:26;;;;;;;3.45;3.03;;;;;;;-141.48;100.00;69781.59;5226595;28;20025;-68
2022/09/18 01:35:03;;;;;;;5.00;3.78;;;;;;;-141.48;100.00;69781.59;5226343;28;20032;-68
2022/09/18 01:37:52;;;;;;;3.58;3.08;;;;;;;-141.48;100.00;69781.59;5226560;28;20035;-71
2022/09/18 01:40:28;;;;;;;4.45;3.28;;;;;;;-141.48;100.00;69781.59;5226321;28;20029;-68
2022/09/18 01:43:04;;;;;;;11.10;3.78;;;;;;;-141.48;100.00;69781.59;5226816;28;20091;-68
2022/09/18 01:45:42;;;;;;;8.75;3.15;;;;;;;-141.48;100.00;69781.59;5226259;28;20534;-68
2022/09/18 01:48:24;;;;;;;12.38;4.30;;;;;;;-141.48;100.00;69781.59;5226759;28;20431;-68
2022/09/18 01:51:13;;;;;;;4.88;4.45;;;;;;;-141.48;100.00;69781.59;5226784;28;20039;-68
2022/09/18 01:53:49;;;;;;;9.18;4.53;;;;;;;-141.48;100.00;69781.59;5208353;28;20017;-67
2022/09/18 01:56:27;;;;;;;8.35;3.55;;;;;;;-141.48;100.00;69781.59;5209797;28;20047;-68
2022/09/18 01:59:02;;;;;;;5.90;4.57;;;;;;;-141.48;100.00;69781.59;5226798;28;20108;-66
2022/09/18 02:01:36;;;;;;;7.65;4.72;;;;;;;-141.48;100.00;69781.59;5226080;28;20495;-68
2022/09/18 02:04:13;;;;;;;4.72;4.18;;;;;;;-141.48;100.00;69781.59;5226163;28;20074;-67
2022/09/18 02:06:56;;;;;;;5.65;3.97;;;;;;;-141.48;100.00;69781.59;5226403;28;20021;-67
2022/09/18 02:09:27;;;;;;;5.32;4.82;;;;;;;-141.48;100.00;69781.59;5226408;28;20053;-67
2022/09/18 02:12:01;;;;;;;4.80;4.32;;;;;;;-141.48;100.00;69781.59;5224833;28;20101;-66
2022/09/18 02:14:38;;;;;;;6.85;5.00;;;;;;;-141.48;100.00;69781.59;5225891;28;20017;-67
2022/09/18 02:17:18;;;;;;;5.03;3.95;;;;;;;-141.48;100.00;69781.59;5225841;28;20444;-64
2022/09/18 02:19:51;;;;;;;;;;;;;;;-141.48;100.00;69781.59;5225816;28;20025;-65
2022/09/18 02:22:23;;;;;;;7.45;4.60;;;;;;;-141.48;100.00;69781.59;5225512;28;19939;-66
2022/09/18 02:24:58;;;;;;;4.05;3.67;;;;;;;-141.48;100.00;69781.59;5224815;28;20025;-67
2022/09/18 02:27:31;;;;;;;11.20;4.63;;;;;;;-141.48;100.00;69781.59;5224739;28;20025;-67
2022/09/18 02:30:05;;;;;;;5.18;4.80;;;;;;;-141.48;100.00;69781.59;5206719;28;20451;-67
2022/09/18 02:32:37;;;;;;;6.35;5.88;;;;;;;-141.48;100.00;69781.59;5225285;28;20025;-72
2022/09/18 02:35:09;;;;;;;6.90;4.50;;;;;;;-141.48;100.00;69781.59;5206777;28;20020;-67
2022/09/18 02:38:09;;;;;;;13.50;6.53;;;;;;;-141.48;100.00;69781.59;5224792;28;20102;-68
2022/09/18 02:40:51;;;;;;;7.32;4.68;;;;;;;-141.48;100.00;69781.59;5224856;28;20021;-68
2022/09/18 02:43:34;;;;;;;5.35;4.95;;;;;;;-141.48;100.00;69781.59;5224237;28;20403;-65
2022/09/18 02:46:26;;;;;;;14.40;5.97;;;;;;;-141.48;100.00;69781.59;5224688;28;20033;-65
2022/09/18 02:49:17;;;;;;;5.72;5.22;;;;;;;-141.48;100.00;69781.59;5206653;28;20028;-66
2022/09/18 02:52:01;;;;;;;8.80;6.78;;;;;;;-141.48;100.00;69781.59;5224294;28;20485;-66
2022/09/18 02:54:31;;;;;;;6.53;5.88;;;;;;;-141.48;100.00;69781.59;5223553;28;20032;-67
2022/09/18 02:57:09;;;;;;;8.85;5.72;;;;;;;-141.48;100.00;69781.59;5224349;28;20116;-68
2022/09/18 03:00:06;;;;;;;6.85;5.53;;;;;;;-141.48;100.00;69781.59;5224785;28;20048;-67
2022/09/18 03:02:37;;;;;;;10.85;5.28;;;;;;;-141.48;100.00;69781.59;5222437;28;20029;-66
2022/09/18 03:05:08;;;;;;;4.57;4.35;;;;;;;-141.48;100.00;69781.59;5223468;28;20020;-68
2022/09/18 03:07:39;;;;;;;4.93;4.57;;;;;;;-141.48;100.00;69781.59;5222660;28;20278;-67
2022/09/18 03:10:10;;;;;;;7.30;5.45;;;;;;;-141.48;100.00;69781.59;5223903;28;20033;-66
2022/09/18 03:12:40;;;;;;;9.15;5.55;;;;;;;-141.48;100.00;69781.59;5224137;28;20024;-67
2022/09/18 03:15:11;;;;;;;6.30;5.85;;;;;;;-141.48;100.00;69781.59;5222487;28;20131;-69
2022/09/18 03:17:41;;;;;;;7.43;5.30;;;;;;;-141.48;100.00;69781.59;5223733;28;20224;-66
2022/09/18 03:20:12;;;;;;;6.57;6.07;;;;;;;-141.48;100.00;69781.59;5223727;28;20086;-68
2022/09/18 03:22:42;;;;;;;6.95;6.55;;;;;;;-141.48;100.00;69781.59;5224039;28;20079;-67
2022/09/18 03:25:14;;;;;;;4.47;4.20;;;;;;;-141.48;100.00;69781.59;5223480;28;20021;-68
2022/09/18 03:27:44;;;;;;;7.68;5.72;;;;;;;-141.48;100.00;69781.59;5223956;28;20024;-67
2022/09/18 03:30:15;;;;;;;9.48;4.93;;;;;;;-141.48;100.00;69781.59;5223240;28;20132;-67
2022/09/18 03:32:45;;;;;;;7.43;4.70;;;;;;;-141.48;100.00;69781.59;5208014;28;20025;-67
2022/09/18 03:35:15;;;;;;;5.28;4.97;;;;;;;-141.48;100.00;69781.59;5227462;28;20021;-67
2022/09/18 03:37:46;;;;;;;5.72;5.22;;;;;;;-141.48;100.00;69781.59;5227930;28;20478;-68
2022/09/18 03:40:16;;;;;;;5.43;4.65;;;;;;;-141.48;100.00;69781.59;5227702;28;20052;-68
2022/09/18 03:42:47;;;;;;;6.32;5.03;;;;;;;-141.48;100.00;69781.59;5228085;28;20096;-68
2022/09/18 03:45:17;;;;;;;5.65;5.15;;;;;;;-141.48;100.00;69781.59;5227136;28;20025;-68
2022/09/18 03:47:48;;;;;;;5.63;5.13;;;;;;;-141.48;100.00;69781.59;5226692;28;20082;-68
2022/09/18 03:50:18;;;;;;;7.65;3.45;;;;;;;-141.48;100.00;69781.59;5209791;28;20116;-69
2022/09/18 03:52:49;;;;;;;9.32;4.30;;;;;;;-141.48;100.00;69781.59;5227693;28;20286;-67
2022/09/18 03:55:20;;;;;;;10.73;5.22;;;;;;;-141.48;100.00;69781.59;5226691;28;20401;-68
2022/09/18 03:57:50;;;;;;;6.03;5.13;;;;;;;-141.48;100.00;69781.59;5227571;28;20393;-68
2022/09/18 04:00:20;;;;;;;5.78;5.07;;;;;;;-141.48;100.00;69781.59;5227352;28;20033;-68
2022/09/18 04:02:51;;;;;;;5.60;5.07;;;;;;;-141.48;100.00;69781.59;5227824;28;20032;-67
2022/09/18 04:05:21;;;;;;;5.03;4.70;;;;;;;-141.48;100.00;69781.59;5227412;28;20373;-70
2022/09/18 04:07:51;;;;;;;8.13;5.70;;;;;;;-141.48;100.00;69781.59;5227107;28;20032;-68
2022/09/18 04:10:22;;;;;;;6.53;4.88;;;;;;;-141.48;100.00;69781.59;5252431;22;20429;-81
2022/09/18 04:12:53;;;;;;;6.65;4.57;;;;;;;-141.48;100.00;69781.59;5225531;28;20091;-79
2022/09/18 04:15:23;;;;;;;6.32;5.93;;;;;;;-141.48;100.00;69781.59;5217296;28;20028;-78
2022/09/18 04:17:54;;;;;;;5.85;4.20;;;;;;;-141.48;100.00;69781.59;5217431;28;20017;-81
2022/09/18 04:20:24;;;;;;;4.65;4.22;;;;;;;-141.48;100.00;69781.59;5217286;28;20438;-80
2022/09/18 04:22:54;;;;;;;6.15;5.63;;;;;;;-141.48;100.00;69781.59;5217746;28;20029;-79
2022/09/18 04:25:25;;;;;;;4.47;4.18;;;;;;;-141.48;100.00;69781.59;5216148;28;20026;-79
2022/09/18 04:27:55;;;;;;;5.70;4.68;;;;;;;-141.48;100.00;69781.59;5213627;28;20179;-81
2022/09/18 04:30:26;;;;;;;3.83;3.55;;;;;;;-141.48;100.00;69781.59;5210952;28;20033;-80
2022/09/18 04:32:56;;;;;;;4.30;3.90;;;;;;;-141.48;100.00;69781.59;5193705;28;20035;-80
2022/09/18 04:35:27;;;;;;;5.53;4.20;;;;;;;-141.48;100.00;69781.59;5194946;28;20029;-80
2022/09/18 04:37:57;;;;;;;5.97;5.57;;;;;;;-141.48;100.00;69781.59;5212271;28;20086;-80
2022/09/18 04:40:27;;;;;;;6.15;4.80;;;;;;;-141.48;100.00;69781.59;5212323;28;20088;-80
2022/09/18 04:42:58;;;;;;;5.07;4.60;;;;;;;-141.48;100.00;69781.59;5219145;28;20029;-82
2022/09/18 04:45:29;;;;;;;4.18;3.88;;;;;;;-141.48;100.00;69781.59;5220939;28;20064;-83
2022/09/18 04:47:59;;;;;;;3.85;3.55;;;;;;;-141.48;100.00;69781.59;5201231;28;20022;-81
2022/09/18 04:50:29;;;;;;;6.63;4.60;;;;;;;-141.48;100.00;69781.59;5199613;28;20021;-81
2022/09/18 04:53:00;;;;;;;5.07;4.65;;;;;;;-141.48;100.00;69781.59;5197727;28;20051;-81
2022/09/18 04:55:30;;;;;;;6.55;4.85;;;;;;;-141.48;100.00;69781.59;5211125;28;20037;-80
2022/09/18 04:58:00;;;;;;;5.68;4.82;;;;;;;-141.48;100.00;69781.59;5209699;28;20049;-79
2022/09/18 05:00:31;;;;;;;6.57;4.78;;;;;;;-141.48;100.00;69781.59;5191093;28;20026;-82
2022/09/18 05:03:03;;;;;;;4.97;4.53;;;;;;;-141.48;100.00;69781.59;5208815;28;20476;-79
2022/09/18 05:05:34;;;;;;;3.88;3.58;;;;;;;-141.48;100.00;69781.59;5190292;28;20076;-79
2022/09/18 05:08:05;;;;;;;4.00;3.63;;;;;;;-141.48;100.00;69781.59;5209279;28;20097;-80
2022/09/18 05:10:35;;;;;;;7.22;4.25;;;;;;;-141.48;100.00;69781.59;5210525;28;20065;-81
2022/09/18 05:13:06;;;;;;;13.98;4.70;;;;;;;-141.48;100.00;69781.59;5209936;28;20025;-81
2022/09/18 05:15:36;;;;;;;4.00;3.70;;;;;;;-141.48;100.00;69781.59;5208219;28;20083;-79
2022/09/18 05:18:07;;;;;;;3.58;3.28;;;;;;;-141.48;100.00;69781.59;5208088;28;20075;-79
2022/09/18 05:20:38;;;;;;;5.05;4.65;;;;;;;-141.48;100.00;69781.59;5208516;28;20060;-80
2022/09/18 05:23:08;;;;;;;4.20;3.72;;;;;;;-141.48;100.00;69781.59;5208913;28;20029;-79
2022/09/18 05:25:40;;;;;;;4.32;3.20;;;;;;;-141.48;100.00;69781.59;5208481;28;20064;-80
2022/09/18 05:28:12;;;;;;;5.10;3.30;;;;;;;-141.48;100.00;69781.59;5209401;28;20037;-81
2022/09/18 05:30:42;;;;;;;8.15;3.67;;;;;;;-141.48;100.00;69781.59;5189829;28;20021;-82
2022/09/18 05:33:13;;;;;;;8.00;4.07;;;;;;;-141.48;100.00;69781.59;5207744;28;20454;-80
2022/09/18 05:35:55;;;;;;;5.78;3.00;;;;;;;-141.48;100.00;69781.59;5209268;28;20021;-79
2022/09/18 05:38:26;;;;;;;5.03;3.78;;;;;;;-141.48;100.00;69781.59;5193231;28;20407;-81
2022/09/18 05:41:01;;;;;;;3.90;3.70;;;;;;;-141.48;100.00;69781.59;5193633;28;20024;-81
2022/09/18 05:43:31;;;;;;;6.13;4.60;;;;;;;-141.48;100.00;69781.59;5211819;28;20026;-79
2022/09/18 05:46:02;;;;;;;8.05;3.90;;;;;;;-141.48;100.00;69781.59;5208909;28;20028;-79
2022/09/18 05:48:32;;;;;;;4.53;4.07;;;;;;;-141.48;100.00;69781.59;5209414;28;20067;-79
2022/09/18 05:51:03;;;;;;;9.35;4.35;;;;;;;-141.48;100.00;69781.59;5209192;28;20071;-78
2022/09/18 05:53:34;;;;;;;5.07;4.63;;;;;;;-141.48;100.00;69781.59;5190434;28;20065;-80
2022/09/18 05:56:05;;;;;;;7.10;5.03;;;;;;;-141.48;100.00;69781.59;5208671;28;20406;-80
2022/09/18 05:58:35;;;;;;;6.10;3.67;;;;;;;-141.48;100.00;69781.59;5189905;28;20033;-80
2022/09/18 06:01:06;;;;;;;4.80;4.40;;;;;;;-141.48;100.00;69781.59;5209438;28;20141;-79
2022/09/18 06:03:36;;;;;;;7.63;5.43;;;;;;;-141.48;100.00;69781.59;5190269;28;20033;-80
2022/09/18 06:06:07;;;;;;;4.72;4.22;;;;;;;-141.48;100.00;69781.59;5209435;28;20112;-80
2022/09/18 06:08:37;;;;;;;6.78;4.95;;;;;;;-141.48;100.00;69781.59;5209697;28;20045;-79
2022/09/18 06:11:07;;;;;;;8.75;3.88;;;;;;;-141.48;100.00;69781.59;5209008;28;20028;-80
2022/09/18 06:13:38;;;;;;;8.95;5.65;;;;;;;-141.48;100.00;69781.59;5191209;28;20117;-81
2022/09/18 06:16:08;;;;;;;5.25;4.95;;;;;;;-141.48;100.00;69781.59;5207067;28;20486;-80
2022/09/18 06:19:04;;;;;;;7.13;4.63;;;;;;;-141.48;100.00;69781.59;5209398;28;20036;-78
2022/09/18 06:21:34;;;;;;;6.30;4.45;;;;;;;-141.48;100.00;69781.59;5193498;28;20043;-80
2022/09/18 06:24:05;;;;;;;8.02;5.03;;;;;;;-141.48;100.00;69781.59;5170699;28;20121;-80
2022/09/18 06:26:36;;;;;;;5.35;4.35;;;;;;;-141.48;100.00;69781.59;5190285;28;20037;-80
2022/09/18 06:29:06;;;;;;;4.40;3.97;;;;;;;-141.48;100.00;69781.59;5169199;28;20103;-81
2022/09/18 06:31:36;;;;;;;11.85;4.30;;;;;;;-141.48;100.00;69781.59;5171688;28;20073;-80
2022/09/18 06:34:07;;;;;;;5.35;4.82;;;;;;;-141.48;100.00;69781.59;5170426;28;20022;-76
2022/09/18 06:36:37;;;;;;;6.53;5.75;;;;;;;-141.48;100.00;69781.59;5185081;28;20061;-84
2022/09/18 06:39:07;;;;;;;9.77;5.93;;;;;;;-141.48;100.00;69781.59;5186794;28;20176;-79
2022/09/18 06:41:38;;;;;;;6.40;4.00;;;;;;;-141.48;100.00;69781.59;5187001;28;20022;-80
2022/09/18 06:44:09;;;;;;;5.35;4.63;;;;;;;-141.48;100.00;69781.59;5187367;28;20053;-79
2022/09/18 06:46:40;;;;;;;6.25;5.05;;;;;;;-141.48;100.00;69781.59;5170234;28;20314;-80
2022/09/18 06:49:11;;;;;;;6.15;5.55;;;;;;;-141.48;100.00;69781.59;5189137;28;20056;-79
2022/09/18 06:51:41;;;;;;;5.53;5.03;;;;;;;-141.48;100.00;69781.59;5171334;28;20452;-80
2022/09/18 06:54:12;;;;;;;16.48;7.13;;;;;;;-141.48;100.00;69781.59;5169719;28;20021;-79
2022/09/18 06:56:44;;;;;;;6.60;6.13;;;;;;;-141.48;100.00;69781.59;5186712;28;20032;-80
2022/09/18 06:59:15;;;;;;;6.45;5.30;;;;;;;-141.48;100.00;69781.59;5187042;28;20026;-79
2022/09/18 07:01:47;;;;;;;10.02;5.35;;;;;;;-141.48;100.00;69781.59;5187653;28;20029;-79
2022/09/18 07:04:17;;;;;;;7.90;5.35;;;;;;;-141.48;100.00;69781.59;5187930;28;20029;-80
2022/09/18 07:06:48;;;;;;;5.70;5.32;;;;;;;-141.48;100.00;69781.59;5189844;28;20477;-81
2022/09/18 07:09:19;;;;;;;6.05;5.30;;;;;;;-141.48;100.00;69781.59;5190619;28;20121;-81
2022/09/18 07:11:49;;;;;;;5.80;5.40;;;;;;;-141.48;100.00;69781.59;5172348;28;20030;-83
2022/09/18 07:14:20;;;;;;;6.57;5.45;;;;;;;-141.48;100.00;69781.59;5172008;28;20026;-83
2022/09/18 07:16:50;;;;;;;4.40;4.10;;;;;;;-141.48;100.00;69781.59;5190226;28;20084;-83
2022/09/18 07:19:21;;;;;;;7.72;5.88;;;;;;;-141.48;100.00;69781.59;5190297;28;20081;-81
2022/09/18 07:21:51;;;;;;;6.30;5.78;;;;;;;-141.48;100.00;69781.59;5190716;28;20029;-82
2022/09/18 07:24:22;;;;;;;6.65;5.55;;;;;;;-141.48;100.00;69781.59;5172439;28;20029;-83
2022/09/18 07:26:52;;;;;;;4.97;4.70;;;;;;;-141.48;100.00;69781.59;5190936;28;20018;-82
2022/09/18 07:29:23;;;;;;;5.38;4.97;;;;;;;-141.48;100.00;69781.59;5189810;28;20018;-82
2022/09/18 07:31:53;;;;;;;5.88;5.57;;;;;;;-141.48;100.00;69781.59;5189555;28;20018;-82
2022/09/18 07:34:23;;;;;;;4.75;4.55;;;;;;;-141.48;100.00;69781.59;5188884;28;20026;-80
2022/09/18 07:36:54;;;;;;;6.72;6.32;;;;;;;-141.48;100.00;69781.59;5189504;28;20045;-82
2022/09/18 07:39:24;;;;;;;5.75;4.63;;;;;;;-141.48;100.00;69781.59;5171073;28;20030;-82
2022/09/18 07:41:54;;;;;;;6.15;5.57;;;;;;;-141.48;100.00;69781.59;5170381;28;20113;-81
2022/09/18 07:44:26;;;;;;;4.88;4.38;;;;;;;-141.48;100.00;69781.59;5169995;28;20034;-82
2022/09/18 07:46:56;;;;;;;9.00;4.82;;;;;;;-141.48;100.00;69781.59;5189488;28;20033;-80
2022/09/18 07:49:27;;;;;;;5.00;4.70;;;;;;;-141.48;100.00;69781.59;5170371;28;20114;-81
2022/09/18 07:51:58;;;;;;;7.65;4.07;;;;;;;-141.48;100.00;69781.59;5189083;28;20061;-81
2022/09/18 07:54:28;;;;;;;9.68;4.85;;;;;;;-141.48;100.00;69781.59;5170663;28;20153;-81
2022/09/18 07:56:59;;;;;;;5.70;4.75;;;;;;;-141.48;100.00;69781.59;5195498;28;20043;-80
2022/09/18 08:03:11;;;;;;;5.60;5.10;;;;;;;-141.48;100.00;69781.59;5213489;28;20048;-80
2022/09/18 08:05:42;;;;;;;6.50;5.07;;;;;;;-141.48;100.00;69781.59;5212676;28;20018;-79
2022/09/18 08:08:14;;;;;;;5.13;4.25;;;;;;;-141.48;100.00;69781.59;5223641;28;20047;-80
2022/09/18 08:10:44;;;;;;;5.85;5.50;;;;;;;-141.48;100.00;69781.59;5241381;28;20036;-81
2022/09/18 08:13:15;;;;;;;3.90;3.67;;;;;;;-141.48;100.00;69781.59;5219041;28;20013;-80
2022/09/18 08:15:45;;;;;;;5.35;4.95;;;;;;;-141.48;100.00;69781.59;5237409;28;20025;-78
2022/09/18 08:18:16;;;;;;;9.90;5.60;;;;;;;-141.48;100.00;69781.59;5195530;28;20036;-79
2022/09/18 08:20:46;;;;;;;8.15;6.40;;;;;;;-141.48;100.00;69781.59;5221358;28;20035;-79
2022/09/18 08:23:23;;;;;;;6.85;6.32;;;;;;;-141.48;100.00;69781.59;5222129;28;20145;-80
2022/09/18 08:25:54;;;;;;;21.60;5.70;;;;;;;-141.48;100.00;69781.59;5212701;28;20025;-81
2022/09/18 08:28:24;;;;;;;7.18;6.63;;;;;;;-141.48;100.00;69781.59;5233031;28;20039;-80
2022/09/18 08:30:56;;;;;;;7.72;7.10;;;;;;;-141.48;100.00;69781.59;5196828;28;20032;-81
2022/09/18 08:33:26;;;;;;;6.88;6.35;;;;;;;-141.48;100.00;69781.59;5213799;28;20121;-80
2022/09/18 08:35:57;;;;;;;5.80;5.40;;;;;;;-141.48;100.00;69781.59;5248699;22;20160;-81
2022/09/18 08:38:27;;;;;;;6.28;5.78;;;;;;;-141.48;100.00;69781.59;5221178;28;20087;-79
2022/09/18 08:41:13;;;;;;;6.10;5.70;;;;;;;-141.48;100.00;69781.59;5234812;28;20494;-79
2022/09/18 08:43:50;;;;;;;5.22;4.88;;;;;;;-141.48;100.00;69781.59;5236646;28;20032;-78
2022/09/18 08:46:26;;;;;;;5.88;5.35;;;;;;;-141.48;100.00;69781.59;5239977;28;20479;-80
2022/09/18 08:49:03;;;;;;;5.88;5.55;;;;;;;-141.48;100.00;69781.59;5220814;28;20025;-80
2022/09/18 08:51:51;;;;;;;8.25;7.03;;;;;;;-141.48;100.00;69781.59;5238443;28;20021;-79
2022/09/18 08:54:32;;;;;;;6.20;5.70;;;;;;;-141.48;100.00;69781.59;5237196;28;20108;-80
2022/09/18 08:57:11;;;;;;;7.30;6.65;;;;;;;-141.48;100.00;69781.59;5219339;28;20414;-81
2022/09/18 08:59:46;;;;;;;9.50;8.43;;;;;;;-141.48;100.00;69781.59;5212732;28;20028;-80
2022/09/18 09:02:29;;;;;;;8.80;7.18;;;;;;;-141.48;100.00;69781.59;5215481;28;20024;-79
2022/09/18 09:05:05;;;;;;;9.45;7.68;;;;;;;-141.48;100.00;69781.59;5213664;28;20029;-81
2022/09/18 09:08:11;;;;;;;8.90;7.63;;;;;;;-141.48;100.00;69781.59;5198688;28;20026;-80
2022/09/18 09:10:54;;;;;;;8.00;7.40;;;;;;;-141.48;100.00;69781.59;5191931;28;20026;-80
2022/09/18 09:13:33;;;;;;;6.53;6.13;;;;;;;-141.48;100.00;69781.59;5191229;28;20033;-79
2022/09/18 09:16:25;;;;;;;7.60;6.80;;;;;;;-141.48;100.00;69781.59;5194250;28;20034;-78
2022/09/18 09:19:01;;;;;;;7.07;6.47;;;;;;;-141.48;100.00;69781.59;5194316;28;20042;-78
2022/09/18 09:21:43;;;;;;;10.13;9.10;;;;;;;-141.48;100.00;69781.59;5195068;28;20017;-78
2022/09/18 09:24:28;;;;;;;8.85;7.68;;;;;;;-141.48;100.00;69781.59;5177035;28;20045;-79
2022/09/18 09:27:12;;;;;;;9.05;8.40;;;;;;;-141.48;100.00;69781.59;5196357;28;20030;-79
2022/09/18 09:29:45;;;;;;;7.30;6.80;;;;;;;-141.48;100.00;69781.59;5193860;28;20029;-80
2022/09/18 09:32:26;;;;;;;7.97;7.38;;;;;;;-141.48;100.00;69781.59;5195347;28;20022;-79
2022/09/18 09:35:15;;;;;;;7.32;6.85;;;;;;;-141.48;100.00;69781.59;5193572;28;20550;-79
2022/09/18 09:37:47;;;;;;;6.63;6.05;;;;;;;-141.48;100.00;69781.59;5177122;28;20041;-79
2022/09/18 09:40:33;;;;;;;6.97;6.30;;;;;;;-141.48;100.00;69781.59;5193728;28;20033;-80
2022/09/18 09:43:33;;;;;;;6.35;5.93;;;;;;;-141.48;100.00;69781.59;5230899;28;20453;-80
2022/09/18 09:46:16;;;;;;;8.02;7.05;;;;;;;-141.48;100.00;69781.59;5242303;28;20021;-78
2022/09/18 09:48:59;;;;;;;6.47;6.07;;;;;;;-141.48;100.00;69781.59;5241598;28;20084;-80
2022/09/18 09:51:39;;;;;;;6.05;5.75;;;;;;;-141.48;100.00;69781.59;5230762;28;20014;-80
2022/09/18 09:54:11;;;;;;;7.03;6.53;;;;;;;-141.48;100.00;69781.59;5229085;28;20482;-80
2022/09/18 09:56:47;;;;;;;5.85;5.45;;;;;;;-141.48;100.00;69781.59;5242432;28;20051;-80
2022/09/18 09:59:23;;;;;;;7.40;5.00;;;;;;;-141.48;100.00;69781.59;5245853;28;20029;-80
2022/09/18 10:02:15;;;;;;;6.32;5.65;;;;;;;-141.48;100.00;69781.59;5211135;28;20030;-80
2022/09/18 10:04:56;;;;;;;6.22;4.20;;;;;;;-141.48;100.00;69781.59;5204014;28;20029;-81
2022/09/18 10:07:36;;;;;;;5.45;4.95;;;;;;;-141.48;100.00;69781.59;5204457;28;20025;-82
2022/09/18 10:10:12;;;;;;;5.80;5.35;;;;;;;-141.48;100.00;69781.59;5202563;28;20048;-80
2022/09/18 10:13:25;;;;;;;5.47;5.05;;;;;;;-141.48;100.00;69781.59;5202109;28;20085;-80
2022/09/18 10:16:07;;;;;;;5.18;4.88;;;;;;;-141.48;100.00;69781.59;5159724;28;20035;-80
2022/09/18 10:18:45;;;;;;;9.43;4.90;;;;;;;-141.48;100.00;69781.59;5193462;28;20044;-78
2022/09/18 10:21:19;;;;;;;5.10;4.80;;;;;;;-141.48;100.00;69781.59;5197436;28;20026;-78
2022/09/18 10:23:59;;;;;;;5.30;5.00;;;;;;;-141.48;100.00;69781.59;5200350;28;20508;-80
2022/09/18 10:26:47;;;;;;;4.45;4.15;;;;;;;-141.48;100.00;69781.59;5183247;28;20045;-79
2022/09/18 10:29:18;;;;;;;4.80;4.53;;;;;;;-141.48;100.00;69781.59;5174182;28;20034;-79
2022/09/18 10:31:50;;;;;;;5.30;4.90;;;;;;;-141.48;100.00;69781.59;5192200;28;20052;-79
2022/09/18 10:34:35;;;;;;;5.57;5.05;;;;;;;-141.48;100.00;69781.59;5192032;28;20026;-79
2022/09/18 10:37:27;;;;;;;4.40;4.10;;;;;;;-141.48;100.00;69781.59;5196268;28;20034;-79
2022/09/18 10:40:00;;;;;;;5.72;5.22;;;;;;;-141.48;100.00;69781.59;5195404;28;20029;-79
2022/09/18 10:42:43;;;;;;;30.40;5.07;;;;;;;-141.48;100.00;69781.59;5195176;28;20021;-79
2022/09/18 10:45:24;;;;;;;4.53;4.18;;;;;;;-141.48;100.00;69781.59;5195570;28;20030;-79
2022/09/18 10:48:18;;;;;;;5.85;5.05;;;;;;;-141.48;100.00;69781.59;5194476;28;20022;-81
2022/09/18 10:50:54;;;;;;;5.38;4.93;;;;;;;-141.48;100.00;69781.59;5173074;28;20384;-78
2022/09/18 10:53:37;;;;;;;5.72;3.55;;;;;;;-141.48;100.00;69781.59;5188123;28;20072;-79
2022/09/18 10:56:18;;;;;;;4.40;4.13;;;;;;;-141.48;100.00;69781.59;5172990;28;20028;-79
2022/09/18 10:58:48;;;;;;;7.60;5.45;;;;;;;-141.48;100.00;69781.59;5176198;28;20026;-79
2022/09/18 11:01:19;;;;;;;5.47;4.10;;;;;;;-141.48;100.00;69781.59;5194044;28;20076;-80
2022/09/18 11:04:04;;;;;;;4.20;3.90;;;;;;;-141.48;100.00;69781.59;5191465;28;20373;-80
2022/09/18 11:06:36;;;;;;;4.57;4.35;;;;;;;-141.48;100.00;69781.59;5187505;28;20108;-78
2022/09/18 11:09:09;;;;;;;4.53;4.13;;;;;;;-141.48;100.00;69781.59;5170110;28;20068;-79
2022/09/18 11:11:45;;;;;;;3.88;3.67;;;;;;;-141.48;100.00;69781.59;5187064;28;20068;-78
2022/09/18 11:14:23;;;;;;;4.38;4.10;;;;;;;-141.48;100.00;69781.59;5185669;28;20076;-78
2022/09/18 11:17:03;;;;;;;4.63;4.32;;;;;;;-141.48;100.00;69781.59;5185920;28;20029;-78
2022/09/18 11:19:37;;;;;;;6.03;5.63;;;;;;;-141.48;100.00;69781.59;5188229;28;20036;-79
2022/09/18 11:22:41;;;;;;;6.93;6.22;;;;;;;-141.48;100.00;69781.59;5172934;28;20060;-79
2022/09/18 11:25:28;;;;;;;7.28;6.78;;;;;;;-141.48;100.00;69781.59;5189564;28;20029;-78
2022/09/18 11:27:59;;;;;;;8.63;8.10;;;;;;;-141.48;100.00;69781.59;5194671;28;20034;-79
2022/09/18 11:30:33;;;;;;;7.90;7.40;;;;;;;-141.48;100.00;69781.59;5193510;28;20480;-79
2022/09/18 11:33:35;;;;;;;7.43;6.78;;;;;;;-141.48;100.00;69781.59;5193967;28;20032;-79
2022/09/18 11:36:09;;;;;;;6.55;6.07;;;;;;;-141.48;100.00;69781.59;5196156;28;20483;-79
2022/09/18 11:38:44;;;;;;;7.97;6.47;;;;;;;-141.48;100.00;69781.59;5196305;28;20484;-79
2022/09/18 11:41:24;;;;;;;13.60;9.65;;;;;;;-141.48;100.00;69781.59;5180812;28;20053;-79
2022/09/18 11:44:00;;;;;;;7.40;6.78;;;;;;;-141.48;100.00;69781.59;5196763;28;20073;-78
2022/09/18 11:47:11;;;;;;;6.47;5.07;;;;;;;-141.48;100.00;69781.59;5198049;28;20072;-79
2022/09/18 11:49:56;;;;;;;5.57;5.07;;;;;;;-141.48;100.00;69781.59;5193528;28;20029;-79